sensor_id;sensor_type;location;lat;lon;timestamp;P1;durP1;ratioP1;P2;durP2;ratioP2
78542;SDS011;67836;52.430;14.446;2023-08-06T00:00:37;9.55;;;4.97;;
78542;SDS011;67836;52.430;14.446;2023-08-06T00:03:21;8.45;;;4.70;;
78542;SDS011;67836;52.430;14.446;2023-08-06T00:06:05;12.85;;;5.57;;
78542;SDS011;67836;52.430;14.446;2023-08-06T00:08:50;9.32;;;4.88;;
78542;SDS011;67836;52.430;14.446;2023-08-06T00:11:34;10.68;;;5.97;;
78542;SDS011;67836;52.430;14.446;2023-08-06T00:14:18;11.20;;;5.32;;
78542;SDS011;67836;52.430;14.446;2023-08-06T00:17:02;9.45;;;5.20;;
78542;SDS011;67836;52.430;14.446;2023-08-06T00:19:46;9.77;;;5.45;;
78542;SDS011;67836;52.430;14.446;2023-08-06T00:22:31;10.13;;;5.63;;
78542;SDS011;67836;52.430;14.446;2023-08-06T00:25:18;11.88;;;5.88;;
78542;SDS011;67836;52.430;14.446;2023-08-06T00:28:02;9.60;;;5.50;;
78542;SDS011;67836;52.430;14.446;2023-08-06T00:30:46;9.15;;;5.60;;
78542;SDS011;67836;52.430;14.446;2023-08-06T00:36:14;9.10;;;4.80;;
78542;SDS011;67836;52.430;14.446;2023-08-06T00:38:58;10.07;;;5.53;;
78542;SDS011;67836;52.430;14.446;2023-08-06T00:41:42;10.27;;;5.28;;
78542;SDS011;67836;52.430;14.446;2023-08-06T00:44:26;10.00;;;5.57;;
78542;SDS011;67836;52.430;14.446;2023-08-06T00:47:10;10.18;;;5.20;;
78542;SDS011;67836;52.430;14.446;2023-08-06T00:49:53;9.27;;;5.78;;
78542;SDS011;67836;52.430;14.446;2023-08-06T00:52:37;11.15;;;5.60;;
78542;SDS011;67836;52.430;14.446;2023-08-06T00:55:21;9.98;;;5.28;;
78542;SDS011;67836;52.430;14.446;2023-08-06T00:58:05;11.25;;;5.65;;
78542;SDS011;67836;52.430;14.446;2023-08-06T01:00:49;9.23;;;4.93;;
78542;SDS011;67836;52.430;14.446;2023-08-06T01:03:34;8.23;;;5.10;;
78542;SDS011;67836;52.430;14.446;2023-08-06T01:06:18;10.18;;;5.80;;
78542;SDS011;67836;52.430;14.446;2023-08-06T01:09:06;8.98;;;4.82;;
78542;SDS011;67836;52.430;14.446;2023-08-06T01:12:33;9.45;;;4.82;;
78542;SDS011;67836;52.430;14.446;2023-08-06T01:15:32;10.00;;;4.72;;
78542;SDS011;67836;52.430;14.446;2023-08-06T01:18:20;9.27;;;4.72;;
78542;SDS011;67836;52.430;14.446;2023-08-06T01:21:04;9.45;;;4.85;;
78542;SDS011;67836;52.430;14.446;2023-08-06T01:23:48;9.65;;;4.82;;
78542;SDS011;67836;52.430;14.446;2023-08-06T01:26:33;10.45;;;4.57;;
78542;SDS011;67836;52.430;14.446;2023-08-06T01:29:23;8.57;;;4.65;;
78542;SDS011;67836;52.430;14.446;2023-08-06T01:32:10;9.00;;;4.68;;
78542;SDS011;67836;52.430;14.446;2023-08-06T01:34:55;7.90;;;4.03;;
78542;SDS011;67836;52.430;14.446;2023-08-06T01:37:40;7.80;;;4.38;;
78542;SDS011;67836;52.430;14.446;2023-08-06T01:40:24;8.85;;;4.13;;
78542;SDS011;67836;52.430;14.446;2023-08-06T01:43:09;7.90;;;3.92;;
78542;SDS011;67836;52.430;14.446;2023-08-06T01:45:54;9.02;;;4.63;;
78542;SDS011;67836;52.430;14.446;2023-08-06T01:48:38;8.27;;;4.07;;
78542;SDS011;67836;52.430;14.446;2023-08-06T01:51:22;9.15;;;4.72;;
78542;SDS011;67836;52.430;14.446;2023-08-06T01:54:06;9.15;;;4.97;;
78542;SDS011;67836;52.430;14.446;2023-08-06T01:56:50;8.85;;;4.53;;
78542;SDS011;67836;52.430;14.446;2023-08-06T01:59:34;8.35;;;4.82;;
78542;SDS011;67836;52.430;14.446;2023-08-06T02:02:18;10.55;;;4.78;;
78542;SDS011;67836;52.430;14.446;2023-08-06T02:05:02;8.35;;;4.25;;
78542;SDS011;67836;52.430;14.446;2023-08-06T02:07:46;10.63;;;4.53;;
78542;SDS011;67836;52.430;14.446;2023-08-06T02:10:30;9.25;;;4.63;;
78542;SDS011;67836;52.430;14.446;2023-08-06T02:13:14;10.55;;;5.10;;
78542;SDS011;67836;52.430;14.446;2023-08-06T02:15:59;8.48;;;4.72;;
78542;SDS011;67836;52.430;14.446;2023-08-06T02:18:42;9.15;;;4.55;;
78542;SDS011;67836;52.430;14.446;2023-08-06T02:21:26;10.32;;;5.07;;
78542;SDS011;67836;52.430;14.446;2023-08-06T02:24:10;7.13;;;3.80;;
78542;SDS011;67836;52.430;14.446;2023-08-06T02:26:54;7.97;;;4.32;;
78542;SDS011;67836;52.430;14.446;2023-08-06T02:29:39;9.27;;;4.55;;
78542;SDS011;67836;52.430;14.446;2023-08-06T02:32:24;11.63;;;4.78;;
78542;SDS011;67836;52.430;14.446;2023-08-06T02:35:08;8.10;;;4.63;;
78542;SDS011;67836;52.430;14.446;2023-08-06T02:37:52;8.40;;;4.47;;
78542;SDS011;67836;52.430;14.446;2023-08-06T02:40:36;8.52;;;4.60;;
78542;SDS011;67836;52.430;14.446;2023-08-06T02:43:20;9.93;;;4.82;;
78542;SDS011;67836;52.430;14.446;2023-08-06T02:46:04;10.27;;;5.07;;
78542;SDS011;67836;52.430;14.446;2023-08-06T02:48:48;11.48;;;5.03;;
78542;SDS011;67836;52.430;14.446;2023-08-06T02:51:32;9.32;;;4.75;;
78542;SDS011;67836;52.430;14.446;2023-08-06T02:54:16;11.90;;;4.68;;
78542;SDS011;67836;52.430;14.446;2023-08-06T02:57:00;10.85;;;4.90;;
78542;SDS011;67836;52.430;14.446;2023-08-06T02:59:44;10.10;;;4.85;;
78542;SDS011;67836;52.430;14.446;2023-08-06T03:02:28;7.80;;;4.07;;
78542;SDS011;67836;52.430;14.446;2023-08-06T03:05:11;11.65;;;3.72;;
78542;SDS011;67836;52.430;14.446;2023-08-06T03:07:55;9.30;;;4.53;;
78542;SDS011;67836;52.430;14.446;2023-08-06T03:10:39;7.55;;;3.78;;
78542;SDS011;67836;52.430;14.446;2023-08-06T03:13:23;11.52;;;4.30;;
78542;SDS011;67836;52.430;14.446;2023-08-06T03:16:07;8.35;;;4.40;;
78542;SDS011;67836;52.430;14.446;2023-08-06T03:18:52;8.23;;;4.13;;
78542;SDS011;67836;52.430;14.446;2023-08-06T03:21:36;8.52;;;4.68;;
78542;SDS011;67836;52.430;14.446;2023-08-06T03:24:20;10.88;;;4.45;;
78542;SDS011;67836;52.430;14.446;2023-08-06T03:27:04;8.13;;;4.38;;
78542;SDS011;67836;52.430;14.446;2023-08-06T03:29:49;8.40;;;3.90;;
78542;SDS011;67836;52.430;14.446;2023-08-06T03:32:33;8.25;;;4.20;;
78542;SDS011;67836;52.430;14.446;2023-08-06T03:35:17;9.85;;;4.70;;
78542;SDS011;67836;52.430;14.446;2023-08-06T03:38:01;8.43;;;4.68;;
78542;SDS011;67836;52.430;14.446;2023-08-06T03:40:46;7.47;;;4.22;;
78542;SDS011;67836;52.430;14.446;2023-08-06T03:43:30;8.98;;;4.80;;
78542;SDS011;67836;52.430;14.446;2023-08-06T03:46:14;8.80;;;4.40;;
78542;SDS011;67836;52.430;14.446;2023-08-06T03:48:58;8.93;;;4.22;;
78542;SDS011;67836;52.430;14.446;2023-08-06T03:51:41;7.90;;;4.05;;
78542;SDS011;67836;52.430;14.446;2023-08-06T03:54:25;9.18;;;4.80;;
78542;SDS011;67836;52.430;14.446;2023-08-06T03:59:54;8.98;;;4.05;;
78542;SDS011;67836;52.430;14.446;2023-08-06T04:05:21;7.38;;;4.13;;
78542;SDS011;67836;52.430;14.446;2023-08-06T04:10:49;7.97;;;3.97;;
78542;SDS011;67836;52.430;14.446;2023-08-06T04:13:35;6.90;;;3.80;;
78542;SDS011;67836;52.430;14.446;2023-08-06T04:16:19;7.90;;;4.07;;
78542;SDS011;67836;52.430;14.446;2023-08-06T04:19:03;9.80;;;5.05;;
78542;SDS011;67836;52.430;14.446;2023-08-06T04:21:47;9.38;;;4.65;;
78542;SDS011;67836;52.430;14.446;2023-08-06T04:24:31;8.65;;;4.40;;
78542;SDS011;67836;52.430;14.446;2023-08-06T04:27:15;8.40;;;4.63;;
78542;SDS011;67836;52.430;14.446;2023-08-06T04:29:59;8.35;;;4.40;;
78542;SDS011;67836;52.430;14.446;2023-08-06T04:32:43;7.78;;;4.10;;
78542;SDS011;67836;52.430;14.446;2023-08-06T04:35:27;8.82;;;4.38;;
78542;SDS011;67836;52.430;14.446;2023-08-06T04:38:11;8.25;;;3.70;;
78542;SDS011;67836;52.430;14.446;2023-08-06T04:40:55;7.20;;;3.85;;
78542;SDS011;67836;52.430;14.446;2023-08-06T04:46:22;9.15;;;4.15;;
78542;SDS011;67836;52.430;14.446;2023-08-06T04:49:07;8.93;;;4.55;;
78542;SDS011;67836;52.430;14.446;2023-08-06T04:51:50;8.40;;;4.28;;
78542;SDS011;67836;52.430;14.446;2023-08-06T04:54:35;7.68;;;4.00;;
78542;SDS011;67836;52.430;14.446;2023-08-06T04:57:19;6.90;;;3.55;;
78542;SDS011;67836;52.430;14.446;2023-08-06T05:00:04;7.55;;;3.72;;
78542;SDS011;67836;52.430;14.446;2023-08-06T05:02:48;7.85;;;3.85;;
78542;SDS011;67836;52.430;14.446;2023-08-06T05:05:32;7.43;;;3.92;;
78542;SDS011;67836;52.430;14.446;2023-08-06T05:08:16;7.53;;;3.80;;
78542;SDS011;67836;52.430;14.446;2023-08-06T05:11:00;9.13;;;3.90;;
78542;SDS011;67836;52.430;14.446;2023-08-06T05:16:28;7.55;;;3.25;;
78542;SDS011;67836;52.430;14.446;2023-08-06T05:19:12;7.07;;;3.60;;
78542;SDS011;67836;52.430;14.446;2023-08-06T05:21:56;6.80;;;3.63;;
78542;SDS011;67836;52.430;14.446;2023-08-06T05:24:40;8.35;;;4.07;;
78542;SDS011;67836;52.430;14.446;2023-08-06T05:27:24;7.30;;;3.55;;
78542;SDS011;67836;52.430;14.446;2023-08-06T05:30:08;9.30;;;3.97;;
78542;SDS011;67836;52.430;14.446;2023-08-06T05:32:53;8.35;;;3.80;;
78542;SDS011;67836;52.430;14.446;2023-08-06T05:35:40;7.15;;;3.13;;
78542;SDS011;67836;52.430;14.446;2023-08-06T05:38:24;7.90;;;3.50;;
78542;SDS011;67836;52.430;14.446;2023-08-06T05:41:08;8.32;;;3.80;;
78542;SDS011;67836;52.430;14.446;2023-08-06T05:43:52;6.75;;;3.35;;
78542;SDS011;67836;52.430;14.446;2023-08-06T05:46:36;7.53;;;3.75;;
78542;SDS011;67836;52.430;14.446;2023-08-06T05:49:20;7.00;;;3.08;;
78542;SDS011;67836;52.430;14.446;2023-08-06T05:52:04;7.32;;;3.60;;
78542;SDS011;67836;52.430;14.446;2023-08-06T05:54:50;7.28;;;3.13;;
78542;SDS011;67836;52.430;14.446;2023-08-06T05:57:34;6.35;;;2.60;;
78542;SDS011;67836;52.430;14.446;2023-08-06T06:00:18;8.00;;;3.22;;
78542;SDS011;67836;52.430;14.446;2023-08-06T06:03:02;6.95;;;3.50;;
78542;SDS011;67836;52.430;14.446;2023-08-06T06:05:46;5.38;;;2.58;;
78542;SDS011;67836;52.430;14.446;2023-08-06T06:08:30;6.75;;;3.58;;
78542;SDS011;67836;52.430;14.446;2023-08-06T06:11:15;6.53;;;3.20;;
78542;SDS011;67836;52.430;14.446;2023-08-06T06:13:59;6.90;;;3.85;;
78542;SDS011;67836;52.430;14.446;2023-08-06T06:19:26;7.38;;;3.75;;
78542;SDS011;67836;52.430;14.446;2023-08-06T06:22:10;7.20;;;4.00;;
78542;SDS011;67836;52.430;14.446;2023-08-06T06:24:54;7.80;;;4.10;;
78542;SDS011;67836;52.430;14.446;2023-08-06T06:27:39;6.72;;;3.67;;
78542;SDS011;67836;52.430;14.446;2023-08-06T06:30:23;8.13;;;3.88;;
78542;SDS011;67836;52.430;14.446;2023-08-06T06:33:07;10.43;;;5.28;;
78542;SDS011;67836;52.430;14.446;2023-08-06T06:35:51;9.82;;;4.70;;
78542;SDS011;67836;52.430;14.446;2023-08-06T06:41:18;9.40;;;4.90;;
78542;SDS011;67836;52.430;14.446;2023-08-06T06:44:02;8.48;;;4.72;;
78542;SDS011;67836;52.430;14.446;2023-08-06T06:46:46;10.23;;;5.18;;
78542;SDS011;67836;52.430;14.446;2023-08-06T06:49:30;9.13;;;4.85;;
78542;SDS011;67836;52.430;14.446;2023-08-06T06:52:14;10.48;;;4.60;;
78542;SDS011;67836;52.430;14.446;2023-08-06T06:54:58;9.73;;;5.18;;
78542;SDS011;67836;52.430;14.446;2023-08-06T06:57:42;7.05;;;3.45;;
78542;SDS011;67836;52.430;14.446;2023-08-06T07:00:26;10.82;;;4.85;;
78542;SDS011;67836;52.430;14.446;2023-08-06T07:03:11;9.15;;;4.97;;
78542;SDS011;67836;52.430;14.446;2023-08-06T07:05:58;9.15;;;5.38;;
78542;SDS011;67836;52.430;14.446;2023-08-06T07:08:42;11.38;;;6.15;;
78542;SDS011;67836;52.430;14.446;2023-08-06T07:11:27;11.23;;;5.38;;
78542;SDS011;67836;52.430;14.446;2023-08-06T07:14:11;9.80;;;5.50;;
78542;SDS011;67836;52.430;14.446;2023-08-06T07:16:55;7.35;;;3.83;;
78542;SDS011;67836;52.430;14.446;2023-08-06T07:19:39;10.50;;;5.78;;
78542;SDS011;67836;52.430;14.446;2023-08-06T07:22:23;13.13;;;6.05;;
78542;SDS011;67836;52.430;14.446;2023-08-06T07:27:51;8.90;;;5.15;;
78542;SDS011;67836;52.430;14.446;2023-08-06T07:30:38;8.70;;;4.07;;
78542;SDS011;67836;52.430;14.446;2023-08-06T07:33:22;9.63;;;4.40;;
78542;SDS011;67836;52.430;14.446;2023-08-06T07:38:57;11.80;;;6.30;;
78542;SDS011;67836;52.430;14.446;2023-08-06T07:41:40;11.65;;;6.95;;
78542;SDS011;67836;52.430;14.446;2023-08-06T07:44:25;10.48;;;5.78;;
78542;SDS011;67836;52.430;14.446;2023-08-06T07:47:09;10.70;;;5.70;;
78542;SDS011;67836;52.430;14.446;2023-08-06T07:49:52;10.38;;;6.05;;
78542;SDS011;67836;52.430;14.446;2023-08-06T07:55:20;8.05;;;4.93;;
78542;SDS011;67836;52.430;14.446;2023-08-06T07:58:04;9.13;;;4.75;;
78542;SDS011;67836;52.430;14.446;2023-08-06T08:00:48;7.70;;;3.85;;
78542;SDS011;67836;52.430;14.446;2023-08-06T08:03:32;11.57;;;6.10;;
78542;SDS011;67836;52.430;14.446;2023-08-06T08:06:16;9.60;;;5.30;;
78542;SDS011;67836;52.430;14.446;2023-08-06T08:09:00;9.48;;;4.35;;
78542;SDS011;67836;52.430;14.446;2023-08-06T08:11:44;9.10;;;5.22;;
78542;SDS011;67836;52.430;14.446;2023-08-06T08:14:28;6.35;;;3.50;;
78542;SDS011;67836;52.430;14.446;2023-08-06T08:17:12;10.80;;;5.30;;
78542;SDS011;67836;52.430;14.446;2023-08-06T08:19:56;10.07;;;5.25;;
78542;SDS011;67836;52.430;14.446;2023-08-06T08:22:40;10.30;;;5.40;;
78542;SDS011;67836;52.430;14.446;2023-08-06T08:25:24;9.73;;;4.90;;
78542;SDS011;67836;52.430;14.446;2023-08-06T08:28:08;9.02;;;4.32;;
78542;SDS011;67836;52.430;14.446;2023-08-06T08:30:52;9.18;;;5.35;;
78542;SDS011;67836;52.430;14.446;2023-08-06T08:33:36;8.30;;;4.50;;
78542;SDS011;67836;52.430;14.446;2023-08-06T08:36:19;9.85;;;4.78;;
78542;SDS011;67836;52.430;14.446;2023-08-06T08:39:04;8.38;;;4.72;;
78542;SDS011;67836;52.430;14.446;2023-08-06T08:41:49;9.63;;;4.95;;
78542;SDS011;67836;52.430;14.446;2023-08-06T08:44:32;9.38;;;5.55;;
78542;SDS011;67836;52.430;14.446;2023-08-06T08:47:17;9.70;;;5.72;;
78542;SDS011;67836;52.430;14.446;2023-08-06T08:50:01;9.10;;;5.20;;
78542;SDS011;67836;52.430;14.446;2023-08-06T08:52:45;8.93;;;4.93;;
78542;SDS011;67836;52.430;14.446;2023-08-06T08:55:29;10.82;;;5.95;;
78542;SDS011;67836;52.430;14.446;2023-08-06T08:58:14;9.20;;;5.32;;
78542;SDS011;67836;52.430;14.446;2023-08-06T09:00:58;8.75;;;4.93;;
78542;SDS011;67836;52.430;14.446;2023-08-06T09:03:43;9.48;;;4.80;;
78542;SDS011;67836;52.430;14.446;2023-08-06T09:06:27;8.23;;;4.05;;
78542;SDS011;67836;52.430;14.446;2023-08-06T09:09:12;9.27;;;5.18;;
78542;SDS011;67836;52.430;14.446;2023-08-06T09:12:00;9.27;;;5.07;;
78542;SDS011;67836;52.430;14.446;2023-08-06T09:14:46;7.60;;;4.05;;
78542;SDS011;67836;52.430;14.446;2023-08-06T09:17:29;9.18;;;4.70;;
78542;SDS011;67836;52.430;14.446;2023-08-06T09:20:14;10.45;;;5.80;;
78542;SDS011;67836;52.430;14.446;2023-08-06T09:22:58;8.15;;;4.65;;
78542;SDS011;67836;52.430;14.446;2023-08-06T09:25:42;9.95;;;5.93;;
78542;SDS011;67836;52.430;14.446;2023-08-06T09:28:38;7.95;;;3.92;;
78542;SDS011;67836;52.430;14.446;2023-08-06T09:31:22;9.48;;;5.10;;
78542;SDS011;67836;52.430;14.446;2023-08-06T09:34:10;8.60;;;4.47;;
78542;SDS011;67836;52.430;14.446;2023-08-06T09:36:55;8.75;;;4.72;;
78542;SDS011;67836;52.430;14.446;2023-08-06T09:39:40;8.82;;;4.88;;
78542;SDS011;67836;52.430;14.446;2023-08-06T09:42:26;8.75;;;4.15;;
78542;SDS011;67836;52.430;14.446;2023-08-06T09:45:12;9.15;;;4.90;;
78542;SDS011;67836;52.430;14.446;2023-08-06T09:47:59;9.25;;;4.95;;
78542;SDS011;67836;52.430;14.446;2023-08-06T09:50:44;7.28;;;3.83;;
78542;SDS011;67836;52.430;14.446;2023-08-06T09:53:29;9.25;;;5.00;;
78542;SDS011;67836;52.430;14.446;2023-08-06T09:56:13;10.50;;;4.57;;
78542;SDS011;67836;52.430;14.446;2023-08-06T09:58:59;7.90;;;4.22;;
78542;SDS011;67836;52.430;14.446;2023-08-06T10:01:43;9.65;;;5.28;;
78542;SDS011;67836;52.430;14.446;2023-08-06T10:04:29;7.05;;;3.97;;
78542;SDS011;67836;52.430;14.446;2023-08-06T10:07:13;8.45;;;4.82;;
78542;SDS011;67836;52.430;14.446;2023-08-06T10:09:58;8.93;;;3.83;;
78542;SDS011;67836;52.430;14.446;2023-08-06T10:12:44;8.38;;;4.40;;
78542;SDS011;67836;52.430;14.446;2023-08-06T10:15:30;6.07;;;3.25;;
78542;SDS011;67836;52.430;14.446;2023-08-06T10:18:16;7.75;;;3.88;;
78542;SDS011;67836;52.430;14.446;2023-08-06T10:21:07;6.90;;;3.58;;
78542;SDS011;67836;52.430;14.446;2023-08-06T10:23:54;6.13;;;3.50;;
78542;SDS011;67836;52.430;14.446;2023-08-06T10:26:38;7.57;;;3.63;;
78542;SDS011;67836;52.430;14.446;2023-08-06T10:29:35;7.65;;;4.30;;
78542;SDS011;67836;52.430;14.446;2023-08-06T10:32:20;6.85;;;2.83;;
78542;SDS011;67836;52.430;14.446;2023-08-06T10:35:05;6.50;;;3.20;;
78542;SDS011;67836;52.430;14.446;2023-08-06T10:37:50;8.38;;;4.00;;
78542;SDS011;67836;52.430;14.446;2023-08-06T10:40:34;7.85;;;3.85;;
78542;SDS011;67836;52.430;14.446;2023-08-06T10:43:36;6.30;;;3.22;;
78542;SDS011;67836;52.430;14.446;2023-08-06T10:46:27;9.80;;;4.63;;
78542;SDS011;67836;52.430;14.446;2023-08-06T10:49:11;6.15;;;3.60;;
78542;SDS011;67836;52.430;14.446;2023-08-06T10:51:57;7.40;;;4.07;;
78542;SDS011;67836;52.430;14.446;2023-08-06T10:54:41;7.95;;;4.10;;
78542;SDS011;67836;52.430;14.446;2023-08-06T10:57:25;7.10;;;3.95;;
78542;SDS011;67836;52.430;14.446;2023-08-06T11:00:09;8.70;;;4.10;;
78542;SDS011;67836;52.430;14.446;2023-08-06T11:02:56;6.32;;;3.53;;
78542;SDS011;67836;52.430;14.446;2023-08-06T11:05:39;8.48;;;4.30;;
78542;SDS011;67836;52.430;14.446;2023-08-06T11:11:12;7.07;;;3.47;;
78542;SDS011;67836;52.430;14.446;2023-08-06T11:13:57;6.85;;;3.38;;
78542;SDS011;67836;52.430;14.446;2023-08-06T11:16:42;7.05;;;3.92;;
78542;SDS011;67836;52.430;14.446;2023-08-06T11:19:26;8.23;;;4.65;;
78542;SDS011;67836;52.430;14.446;2023-08-06T11:22:10;6.60;;;3.28;;
78542;SDS011;67836;52.430;14.446;2023-08-06T11:24:54;9.07;;;3.95;;
78542;SDS011;67836;52.430;14.446;2023-08-06T11:27:38;8.52;;;4.18;;
78542;SDS011;67836;52.430;14.446;2023-08-06T11:30:22;5.45;;;2.58;;
78542;SDS011;67836;52.430;14.446;2023-08-06T11:33:07;7.85;;;3.78;;
78542;SDS011;67836;52.430;14.446;2023-08-06T11:35:51;4.70;;;2.55;;
78542;SDS011;67836;52.430;14.446;2023-08-06T11:38:36;8.32;;;4.05;;
78542;SDS011;67836;52.430;14.446;2023-08-06T11:41:19;6.35;;;2.92;;
78542;SDS011;67836;52.430;14.446;2023-08-06T11:44:03;6.30;;;3.13;;
78542;SDS011;67836;52.430;14.446;2023-08-06T11:46:51;7.78;;;3.90;;
78542;SDS011;67836;52.430;14.446;2023-08-06T11:49:40;6.75;;;3.15;;
78542;SDS011;67836;52.430;14.446;2023-08-06T11:52:31;5.22;;;2.83;;
78542;SDS011;67836;52.430;14.446;2023-08-06T11:55:15;5.72;;;2.95;;
78542;SDS011;67836;52.430;14.446;2023-08-06T11:58:02;6.28;;;3.17;;
78542;SDS011;67836;52.430;14.446;2023-08-06T12:00:48;6.60;;;3.20;;
78542;SDS011;67836;52.430;14.446;2023-08-06T12:03:32;6.68;;;3.42;;
78542;SDS011;67836;52.430;14.446;2023-08-06T12:06:16;7.53;;;3.70;;
78542;SDS011;67836;52.430;14.446;2023-08-06T12:09:00;6.82;;;3.25;;
78542;SDS011;67836;52.430;14.446;2023-08-06T12:11:44;6.28;;;3.25;;
78542;SDS011;67836;52.430;14.446;2023-08-06T12:14:28;6.53;;;3.13;;
78542;SDS011;67836;52.430;14.446;2023-08-06T12:17:12;8.15;;;4.10;;
78542;SDS011;67836;52.430;14.446;2023-08-06T12:19:56;7.78;;;4.10;;
78542;SDS011;67836;52.430;14.446;2023-08-06T12:22:41;7.78;;;3.72;;
78542;SDS011;67836;52.430;14.446;2023-08-06T12:25:25;7.28;;;3.65;;
78542;SDS011;67836;52.430;14.446;2023-08-06T12:28:09;8.60;;;3.90;;
78542;SDS011;67836;52.430;14.446;2023-08-06T12:30:54;7.60;;;3.63;;
78542;SDS011;67836;52.430;14.446;2023-08-06T12:33:38;6.82;;;3.15;;
78542;SDS011;67836;52.430;14.446;2023-08-06T12:36:23;7.97;;;4.03;;
78542;SDS011;67836;52.430;14.446;2023-08-06T12:39:07;7.97;;;4.15;;
78542;SDS011;67836;52.430;14.446;2023-08-06T12:41:51;7.85;;;3.50;;
78542;SDS011;67836;52.430;14.446;2023-08-06T12:44:35;6.80;;;3.22;;
78542;SDS011;67836;52.430;14.446;2023-08-06T12:47:19;7.25;;;3.67;;
78542;SDS011;67836;52.430;14.446;2023-08-06T12:50:04;6.15;;;3.33;;
78542;SDS011;67836;52.430;14.446;2023-08-06T12:52:48;6.35;;;3.47;;
78542;SDS011;67836;52.430;14.446;2023-08-06T12:55:32;7.28;;;3.63;;
78542;SDS011;67836;52.430;14.446;2023-08-06T12:58:16;7.93;;;3.28;;
78542;SDS011;67836;52.430;14.446;2023-08-06T13:01:01;7.63;;;3.55;;
78542;SDS011;67836;52.430;14.446;2023-08-06T13:03:45;7.45;;;3.15;;
78542;SDS011;67836;52.430;14.446;2023-08-06T13:06:29;8.40;;;4.43;;
78542;SDS011;67836;52.430;14.446;2023-08-06T13:09:14;9.30;;;4.25;;
78542;SDS011;67836;52.430;14.446;2023-08-06T13:11:59;5.55;;;2.90;;
78542;SDS011;67836;52.430;14.446;2023-08-06T13:14:43;7.95;;;3.80;;
78542;SDS011;67836;52.430;14.446;2023-08-06T13:17:27;8.15;;;3.65;;
78542;SDS011;67836;52.430;14.446;2023-08-06T13:20:11;6.47;;;3.17;;
78542;SDS011;67836;52.430;14.446;2023-08-06T13:22:55;8.02;;;3.95;;
78542;SDS011;67836;52.430;14.446;2023-08-06T13:25:39;7.07;;;3.05;;
78542;SDS011;67836;52.430;14.446;2023-08-06T13:28:23;7.47;;;3.10;;
78542;SDS011;67836;52.430;14.446;2023-08-06T13:31:08;7.88;;;3.95;;
78542;SDS011;67836;52.430;14.446;2023-08-06T13:33:52;6.57;;;3.45;;
78542;SDS011;67836;52.430;14.446;2023-08-06T13:36:39;6.32;;;2.90;;
78542;SDS011;67836;52.430;14.446;2023-08-06T13:39:23;9.00;;;3.70;;
78542;SDS011;67836;52.430;14.446;2023-08-06T13:42:07;7.15;;;3.63;;
78542;SDS011;67836;52.430;14.446;2023-08-06T13:44:50;5.30;;;2.88;;
78542;SDS011;67836;52.430;14.446;2023-08-06T13:47:34;7.35;;;3.70;;
78542;SDS011;67836;52.430;14.446;2023-08-06T13:50:18;7.53;;;3.72;;
78542;SDS011;67836;52.430;14.446;2023-08-06T13:53:03;8.32;;;4.10;;
78542;SDS011;67836;52.430;14.446;2023-08-06T13:55:47;7.18;;;3.05;;
78542;SDS011;67836;52.430;14.446;2023-08-06T13:58:32;7.60;;;3.80;;
78542;SDS011;67836;52.430;14.446;2023-08-06T14:01:17;5.50;;;2.28;;
78542;SDS011;67836;52.430;14.446;2023-08-06T14:04:02;5.15;;;2.10;;
78542;SDS011;67836;52.430;14.446;2023-08-06T14:06:46;2.88;;;1.52;;
78542;SDS011;67836;52.430;14.446;2023-08-06T14:09:30;8.20;;;4.63;;
78542;SDS011;67836;52.430;14.446;2023-08-06T14:12:15;5.15;;;2.63;;
78542;SDS011;67836;52.430;14.446;2023-08-06T14:14:59;4.10;;;1.77;;
78542;SDS011;67836;52.430;14.446;2023-08-06T14:17:43;5.13;;;2.58;;
78542;SDS011;67836;52.430;14.446;2023-08-06T14:20:27;5.13;;;2.63;;
78542;SDS011;67836;52.430;14.446;2023-08-06T14:23:11;5.15;;;2.33;;
78542;SDS011;67836;52.430;14.446;2023-08-06T14:25:55;3.85;;;1.60;;
78542;SDS011;67836;52.430;14.446;2023-08-06T14:28:39;4.97;;;2.10;;
78542;SDS011;67836;52.430;14.446;2023-08-06T14:31:23;8.07;;;3.45;;
78542;SDS011;67836;52.430;14.446;2023-08-06T14:34:07;5.18;;;2.47;;
78542;SDS011;67836;52.430;14.446;2023-08-06T14:36:51;4.68;;;2.13;;
78542;SDS011;67836;52.430;14.446;2023-08-06T14:39:35;6.18;;;2.60;;
78542;SDS011;67836;52.430;14.446;2023-08-06T14:42:19;4.03;;;1.63;;
78542;SDS011;67836;52.430;14.446;2023-08-06T14:45:03;3.28;;;1.63;;
78542;SDS011;67836;52.430;14.446;2023-08-06T14:47:48;4.55;;;2.28;;
78542;SDS011;67836;52.430;14.446;2023-08-06T14:50:32;5.50;;;2.60;;
78542;SDS011;67836;52.430;14.446;2023-08-06T14:53:16;4.80;;;2.15;;
78542;SDS011;67836;52.430;14.446;2023-08-06T14:56:00;4.75;;;1.95;;
78542;SDS011;67836;52.430;14.446;2023-08-06T14:58:44;5.53;;;2.25;;
78542;SDS011;67836;52.430;14.446;2023-08-06T15:01:28;7.28;;;3.45;;
78542;SDS011;67836;52.430;14.446;2023-08-06T15:04:13;4.40;;;1.92;;
78542;SDS011;67836;52.430;14.446;2023-08-06T15:06:57;6.68;;;3.22;;
78542;SDS011;67836;52.430;14.446;2023-08-06T15:09:41;4.32;;;2.00;;
78542;SDS011;67836;52.430;14.446;2023-08-06T15:12:25;5.80;;;2.42;;
78542;SDS011;67836;52.430;14.446;2023-08-06T15:15:09;5.03;;;2.00;;
78542;SDS011;67836;52.430;14.446;2023-08-06T15:17:54;2.65;;;1.52;;
78542;SDS011;67836;52.430;14.446;2023-08-06T15:20:38;4.97;;;2.20;;
78542;SDS011;67836;52.430;14.446;2023-08-06T15:23:22;6.10;;;2.72;;
78542;SDS011;67836;52.430;14.446;2023-08-06T15:26:06;5.57;;;2.35;;
78542;SDS011;67836;52.430;14.446;2023-08-06T15:28:50;6.07;;;2.72;;
78542;SDS011;67836;52.430;14.446;2023-08-06T15:31:36;9.43;;;4.88;;
78542;SDS011;67836;52.430;14.446;2023-08-06T15:34:21;4.68;;;2.38;;
78542;SDS011;67836;52.430;14.446;2023-08-06T15:37:05;4.85;;;2.38;;
78542;SDS011;67836;52.430;14.446;2023-08-06T15:39:49;3.45;;;1.55;;
78542;SDS011;67836;52.430;14.446;2023-08-06T15:42:33;6.50;;;2.30;;
78542;SDS011;67836;52.430;14.446;2023-08-06T15:45:17;5.30;;;2.13;;
78542;SDS011;67836;52.430;14.446;2023-08-06T15:48:01;7.38;;;2.75;;
78542;SDS011;67836;52.430;14.446;2023-08-06T15:50:45;4.47;;;2.38;;
78542;SDS011;67836;52.430;14.446;2023-08-06T15:53:29;4.32;;;2.25;;
78542;SDS011;67836;52.430;14.446;2023-08-06T15:56:15;5.40;;;2.33;;
78542;SDS011;67836;52.430;14.446;2023-08-06T15:59:07;4.30;;;2.08;;
78542;SDS011;67836;52.430;14.446;2023-08-06T16:02:10;5.85;;;2.35;;
78542;SDS011;67836;52.430;14.446;2023-08-06T16:04:54;5.13;;;2.17;;
78542;SDS011;67836;52.430;14.446;2023-08-06T16:07:39;4.68;;;2.30;;
78542;SDS011;67836;52.430;14.446;2023-08-06T16:10:23;3.70;;;2.00;;
78542;SDS011;67836;52.430;14.446;2023-08-06T16:13:07;4.45;;;1.75;;
78542;SDS011;67836;52.430;14.446;2023-08-06T16:15:51;5.28;;;2.20;;
78542;SDS011;67836;52.430;14.446;2023-08-06T16:18:35;5.32;;;2.30;;
78542;SDS011;67836;52.430;14.446;2023-08-06T16:21:19;6.47;;;2.10;;
78542;SDS011;67836;52.430;14.446;2023-08-06T16:24:03;6.60;;;3.00;;
78542;SDS011;67836;52.430;14.446;2023-08-06T16:26:48;6.88;;;2.55;;
78542;SDS011;67836;52.430;14.446;2023-08-06T16:29:33;6.18;;;2.13;;
78542;SDS011;67836;52.430;14.446;2023-08-06T16:32:17;4.35;;;2.10;;
78542;SDS011;67836;52.430;14.446;2023-08-06T16:35:02;5.97;;;1.90;;
78542;SDS011;67836;52.430;14.446;2023-08-06T16:37:46;4.72;;;1.83;;
78542;SDS011;67836;52.430;14.446;2023-08-06T16:40:31;4.22;;;1.77;;
78542;SDS011;67836;52.430;14.446;2023-08-06T16:45:58;3.45;;;1.45;;
78542;SDS011;67836;52.430;14.446;2023-08-06T16:48:42;4.07;;;1.80;;
78542;SDS011;67836;52.430;14.446;2023-08-06T16:51:27;4.70;;;1.90;;